sensor_id;sensor_type;location;lat;lon;timestamp;pressure;altitude;pressure_sealevel;temperature;humidity
48517;BME280;34310;51.904;4.256;2023-11-19T00:02:19;100895.34;;;14.54;70.41
48517;BME280;34310;51.904;4.256;2023-11-19T00:04:46;100898.84;;;14.55;70.29
48517;BME280;34310;51.904;4.256;2023-11-19T00:07:13;100910.06;;;14.54;70.30
48517;BME280;34310;51.904;4.256;2023-11-19T00:09:40;100905.75;;;14.54;70.50
48517;BME280;34310;51.904;4.256;2023-11-19T00:12:07;100910.13;;;14.55;70.44
48517;BME280;34310;51.904;4.256;2023-11-19T00:14:33;100911.75;;;14.53;70.32
48517;BME280;34310;51.904;4.256;2023-11-19T00:17:00;100919.63;;;14.55;70.58
48517;BME280;34310;51.904;4.256;2023-11-19T00:19:26;100901.28;;;14.52;70.34
48517;BME280;34310;51.904;4.256;2023-11-19T00:21:53;100906.56;;;14.53;70.53
48517;BME280;34310;51.904;4.256;2023-11-19T00:24:19;100905.81;;;14.56;70.47
48517;BME280;34310;51.904;4.256;2023-11-19T00:26:47;100901.44;;;14.55;70.57
48517;BME280;34310;51.904;4.256;2023-11-19T00:29:13;100917.84;;;14.54;70.58
48517;BME280;34310;51.904;4.256;2023-11-19T00:31:40;100903.88;;;14.52;70.45
48517;BME280;34310;51.904;4.256;2023-11-19T00:34:06;100904.78;;;14.52;70.45
48517;BME280;34310;51.904;4.256;2023-11-19T00:36:33;100908.34;;;14.54;70.45
48517;BME280;34310;51.904;4.256;2023-11-19T00:38:59;100910.06;;;14.54;70.51
48517;BME280;34310;51.904;4.256;2023-11-19T00:41:26;100901.38;;;14.53;70.73
48517;BME280;34310;51.904;4.256;2023-11-19T00:43:52;100891.94;;;14.55;70.52
48517;BME280;34310;51.904;4.256;2023-11-19T00:46:18;100891.88;;;14.54;70.60
48517;BME280;34310;51.904;4.256;2023-11-19T00:48:45;100881.56;;;14.55;70.62
48517;BME280;34310;51.904;4.256;2023-11-19T00:51:12;100864.19;;;14.54;70.62
48517;BME280;34310;51.904;4.256;2023-11-19T00:53:38;100863.28;;;14.54;70.48
48517;BME280;34310;51.904;4.256;2023-11-19T00:56:05;100865.81;;;14.52;70.63
48517;BME280;34310;51.904;4.256;2023-11-19T00:58:32;100863.19;;;14.52;70.58
48517;BME280;34310;51.904;4.256;2023-11-19T01:00:58;100865.88;;;14.54;70.46
48517;BME280;34310;51.904;4.256;2023-11-19T01:03:25;100861.34;;;14.50;70.57
48517;BME280;34310;51.904;4.256;2023-11-19T01:05:51;100858.72;;;14.50;70.65
48517;BME280;34310;51.904;4.256;2023-11-19T01:08:18;100851.09;;;14.53;70.54
48517;BME280;34310;51.904;4.256;2023-11-19T01:10:44;100857.13;;;14.52;70.60
48517;BME280;34310;51.904;4.256;2023-11-19T01:13:10;100858.91;;;14.53;70.36
48517;BME280;34310;51.904;4.256;2023-11-19T01:15:37;100863.19;;;14.52;70.52
48517;BME280;34310;51.904;4.256;2023-11-19T01:18:04;100865.00;;;14.53;70.48
48517;BME280;34310;51.904;4.256;2023-11-19T01:20:30;100849.22;;;14.50;70.63
48517;BME280;34310;51.904;4.256;2023-11-19T01:22:57;100852.81;;;14.52;70.73
48517;BME280;34310;51.904;4.256;2023-11-19T01:25:23;100853.63;;;14.51;70.58
48517;BME280;34310;51.904;4.256;2023-11-19T01:27:49;100842.34;;;14.51;70.88
48517;BME280;34310;51.904;4.256;2023-11-19T01:30:16;100850.13;;;14.51;70.71
48517;BME280;34310;51.904;4.256;2023-11-19T01:32:43;100857.91;;;14.51;70.85
48517;BME280;34310;51.904;4.256;2023-11-19T01:35:09;100852.66;;;14.49;70.68
48517;BME280;34310;51.904;4.256;2023-11-19T01:37:36;100844.84;;;14.49;70.77
48517;BME280;34310;51.904;4.256;2023-11-19T01:40:03;100844.84;;;14.49;70.82
48517;BME280;34310;51.904;4.256;2023-11-19T01:42:30;100838.75;;;14.49;70.71
48517;BME280;34310;51.904;4.256;2023-11-19T01:44:59;100843.06;;;14.48;70.57
48517;BME280;34310;51.904;4.256;2023-11-19T01:47:30;100838.84;;;14.50;70.89
48517;BME280;34310;51.904;4.256;2023-11-19T01:49:57;100835.19;;;14.47;70.65
48517;BME280;34310;51.904;4.256;2023-11-19T01:52:25;100849.00;;;14.46;70.73
48517;BME280;34310;51.904;4.256;2023-11-19T01:54:53;100850.84;;;14.48;70.96
48517;BME280;34310;51.904;4.256;2023-11-19T01:57:22;100855.06;;;14.46;70.72
48517;BME280;34310;51.904;4.256;2023-11-19T01:59:52;100877.72;;;14.49;70.71
48517;BME280;34310;51.904;4.256;2023-11-19T02:02:20;100881.13;;;14.48;70.86
48517;BME280;34310;51.904;4.256;2023-11-19T02:04:49;100874.03;;;14.45;71.02
48517;BME280;34310;51.904;4.256;2023-11-19T02:07:16;100879.34;;;14.47;70.72
48517;BME280;34310;51.904;4.256;2023-11-19T02:09:43;100873.06;;;14.43;71.06
48517;BME280;34310;51.904;4.256;2023-11-19T02:12:10;100865.47;;;14.46;70.85
48517;BME280;34310;51.904;4.256;2023-11-19T02:14:37;100874.97;;;14.46;71.13
48517;BME280;34310;51.904;4.256;2023-11-19T02:17:04;100861.97;;;14.46;71.01
48517;BME280;34310;51.904;4.256;2023-11-19T02:19:30;100857.56;;;14.45;71.10
48517;BME280;34310;51.904;4.256;2023-11-19T02:21:57;100875.75;;;14.45;70.91
48517;BME280;34310;51.904;4.256;2023-11-19T02:24:24;100858.38;;;14.44;70.96
48517;BME280;34310;51.904;4.256;2023-11-19T02:27:08;100865.25;;;14.43;71.10
48517;BME280;34310;51.904;4.256;2023-11-19T02:29:36;100859.94;;;14.42;70.96
48517;BME280;34310;51.904;4.256;2023-11-19T02:32:03;100858.38;;;14.44;70.81
48517;BME280;34310;51.904;4.256;2023-11-19T02:34:30;100858.38;;;14.44;71.17
48517;BME280;34310;51.904;4.256;2023-11-19T02:36:56;100854.06;;;14.44;70.99
48517;BME280;34310;51.904;4.256;2023-11-19T02:39:23;100859.25;;;14.44;70.71
48517;BME280;34310;51.904;4.256;2023-11-19T02:41:49;100879.16;;;14.44;70.91
48517;BME280;34310;51.904;4.256;2023-11-19T02:44:16;100860.06;;;14.43;71.19
48517;BME280;34310;51.904;4.256;2023-11-19T02:46:43;100863.44;;;14.42;71.36
48517;BME280;34310;51.904;4.256;2023-11-19T02:49:09;100855.97;;;14.47;71.19
48517;BME280;34310;51.904;4.256;2023-11-19T02:51:36;100851.75;;;14.49;71.02
48517;BME280;34310;51.904;4.256;2023-11-19T02:54:02;100850.84;;;14.48;70.98
48517;BME280;34310;51.904;4.256;2023-11-19T02:56:29;100859.47;;;14.47;71.19
48517;BME280;34310;51.904;4.256;2023-11-19T02:58:55;100855.97;;;14.47;71.24
48517;BME280;34310;51.904;4.256;2023-11-19T03:01:25;100861.97;;;14.46;71.09
48517;BME280;34310;51.904;4.256;2023-11-19T03:03:52;100854.97;;;14.45;71.27
48517;BME280;34310;51.904;4.256;2023-11-19T03:06:18;100859.25;;;14.44;71.23
48517;BME280;34310;51.904;4.256;2023-11-19T03:08:45;100852.47;;;14.46;71.38
48517;BME280;34310;51.904;4.256;2023-11-19T03:11:11;100857.66;;;14.46;71.27
48517;BME280;34310;51.904;4.256;2023-11-19T03:13:38;100849.75;;;14.45;71.23
48517;BME280;34310;51.904;4.256;2023-11-19T03:16:04;100842.88;;;14.45;71.29
48517;BME280;34310;51.904;4.256;2023-11-19T03:18:31;100837.59;;;14.44;71.19
48517;BME280;34310;51.904;4.256;2023-11-19T03:20:58;100836.88;;;14.46;71.23
48517;BME280;34310;51.904;4.256;2023-11-19T03:23:24;100838.47;;;14.44;71.16
48517;BME280;34310;51.904;4.256;2023-11-19T03:25:51;100850.66;;;14.45;71.24
48517;BME280;34310;51.904;4.256;2023-11-19T03:28:17;100845.38;;;14.44;71.32
48517;BME280;34310;51.904;4.256;2023-11-19T03:30:44;100843.78;;;14.46;71.35
48517;BME280;34310;51.904;4.256;2023-11-19T03:33:10;100849.00;;;14.46;71.12
48517;BME280;34310;51.904;4.256;2023-11-19T03:35:37;100851.66;;;14.47;71.19
48517;BME280;34310;51.904;4.256;2023-11-19T03:38:04;100850.78;;;14.47;71.21
48517;BME280;34310;51.904;4.256;2023-11-19T03:40:30;100853.25;;;14.45;71.05
48517;BME280;34310;51.904;4.256;2023-11-19T03:42:57;100835.59;;;14.40;71.20
48517;BME280;34310;51.904;4.256;2023-11-19T03:45:23;100860.28;;;14.46;70.92
48517;BME280;34310;51.904;4.256;2023-11-19T03:47:50;100853.16;;;14.44;71.18
48517;BME280;34310;51.904;4.256;2023-11-19T03:50:17;100858.38;;;14.44;71.24
48517;BME280;34310;51.904;4.256;2023-11-19T03:52:43;100859.19;;;14.43;71.38
48517;BME280;34310;51.904;4.256;2023-11-19T03:55:10;100865.34;;;14.45;71.15
48517;BME280;34310;51.904;4.256;2023-11-19T03:57:36;100861.84;;;14.44;71.40
48517;BME280;34310;51.904;4.256;2023-11-19T04:00:03;100865.25;;;14.43;71.30
48517;BME280;34310;51.904;4.256;2023-11-19T04:02:30;100867.75;;;14.42;71.31
48517;BME280;34310;51.904;4.256;2023-11-19T04:04:56;100880.94;;;14.45;71.44
48517;BME280;34310;51.904;4.256;2023-11-19T04:07:23;100868.56;;;14.41;71.37
48517;BME280;34310;51.904;4.256;2023-11-19T04:09:49;100864.16;;;14.40;71.51
48517;BME280;34310;51.904;4.256;2023-11-19T04:12:16;100873.66;;;14.39;71.25
48517;BME280;34310;51.904;4.256;2023-11-19T04:14:42;100879.84;;;14.41;71.18
48517;BME280;34310;51.904;4.256;2023-11-19T04:17:09;100873.75;;;14.41;71.37
48517;BME280;34310;51.904;4.256;2023-11-19T04:19:35;100868.38;;;14.38;71.30
48517;BME280;34310;51.904;4.256;2023-11-19T04:22:02;100867.66;;;14.40;71.50
48517;BME280;34310;51.904;4.256;2023-11-19T04:24:28;100846.94;;;14.25;71.30
48517;BME280;34310;51.904;4.256;2023-11-19T04:26:55;100871.78;;;14.37;71.41
48517;BME280;34310;51.904;4.256;2023-11-19T04:29:21;100877.16;;;14.40;71.47
48517;BME280;34310;51.904;4.256;2023-11-19T04:31:48;100872.59;;;14.36;71.46
48517;BME280;34310;51.904;4.256;2023-11-19T04:34:14;100876.25;;;14.39;71.58
48517;BME280;34310;51.904;4.256;2023-11-19T04:36:41;100868.38;;;14.38;71.29
48517;BME280;34310;51.904;4.256;2023-11-19T04:39:07;100880.56;;;14.39;71.42
48517;BME280;34310;51.904;4.256;2023-11-19T04:41:34;100880.56;;;14.39;71.53
48517;BME280;34310;51.904;4.256;2023-11-19T04:44:00;100877.97;;;14.39;71.28
48517;BME280;34310;51.904;4.256;2023-11-19T04:46:27;100875.38;;;14.39;71.33
48517;BME280;34310;51.904;4.256;2023-11-19T04:48:53;100887.56;;;14.40;71.61
48517;BME280;34310;51.904;4.256;2023-11-19T04:51:20;100879.66;;;14.38;71.39
48517;BME280;34310;51.904;4.256;2023-11-19T04:53:46;100875.38;;;14.39;71.41
48517;BME280;34310;51.904;4.256;2023-11-19T04:56:12;100873.50;;;14.36;71.42
48517;BME280;34310;51.904;4.256;2023-11-19T04:58:39;100879.66;;;14.38;71.33
48517;BME280;34310;51.904;4.256;2023-11-19T05:01:06;100882.28;;;14.38;71.40
48517;BME280;34310;51.904;4.256;2023-11-19T05:03:32;100873.59;;;14.38;71.26
48517;BME280;34310;51.904;4.256;2023-11-19T05:05:59;100880.47;;;14.37;71.31
48517;BME280;34310;51.904;4.256;2023-11-19T05:08:25;100887.38;;;14.37;71.33
48517;BME280;34310;51.904;4.256;2023-11-19T05:10:52;100878.69;;;14.36;71.49
48517;BME280;34310;51.904;4.256;2023-11-19T05:13:18;100886.50;;;14.36;71.18
48517;BME280;34310;51.904;4.256;2023-11-19T05:15:45;100888.28;;;14.37;71.51
48517;BME280;34310;51.904;4.256;2023-11-19T05:18:11;100889.25;;;14.39;71.44
48517;BME280;34310;51.904;4.256;2023-11-19T05:20:38;100883.16;;;14.39;71.44
48517;BME280;34310;51.904;4.256;2023-11-19T05:23:04;100887.38;;;14.37;71.32
48517;BME280;34310;51.904;4.256;2023-11-19T05:25:31;100885.69;;;14.37;71.32
48517;BME280;34310;51.904;4.256;2023-11-19T05:27:57;100889.97;;;14.37;71.39
48517;BME280;34310;51.904;4.256;2023-11-19T05:30:24;100885.75;;;14.39;71.49
48517;BME280;34310;51.904;4.256;2023-11-19T05:32:50;100883.97;;;14.38;71.52
48517;BME280;34310;51.904;4.256;2023-11-19T05:35:17;100875.47;;;14.40;71.32
48517;BME280;34310;51.904;4.256;2023-11-19T05:37:43;100882.34;;;14.40;71.47
48517;BME280;34310;51.904;4.256;2023-11-19T05:40:10;100887.56;;;14.40;71.50
48517;BME280;34310;51.904;4.256;2023-11-19T05:42:37;100894.38;;;14.38;71.35
48517;BME280;34310;51.904;4.256;2023-11-19T05:45:04;100887.47;;;14.38;71.49
48517;BME280;34310;51.904;4.256;2023-11-19T05:47:30;100878.69;;;14.36;71.28
48517;BME280;34310;51.904;4.256;2023-11-19T05:49:57;100871.88;;;14.38;71.46
48517;BME280;34310;51.904;4.256;2023-11-19T05:52:23;100874.75;;;14.43;71.41
48517;BME280;34310;51.904;4.256;2023-11-19T05:54:50;100874.97;;;14.46;71.20
48517;BME280;34310;51.904;4.256;2023-11-19T05:57:16;100865.72;;;14.51;71.28
48517;BME280;34310;51.904;4.256;2023-11-19T05:59:43;100880.31;;;14.49;71.30
48517;BME280;34310;51.904;4.256;2023-11-19T06:02:09;100880.31;;;14.49;71.28
48517;BME280;34310;51.904;4.256;2023-11-19T06:04:36;100869.94;;;14.49;71.32
48517;BME280;34310;51.904;4.256;2023-11-19T06:07:02;100878.25;;;14.43;71.30
48517;BME280;34310;51.904;4.256;2023-11-19T06:09:29;100886.13;;;14.45;71.50
48517;BME280;34310;51.904;4.256;2023-11-19T06:11:55;100881.75;;;14.44;71.27
48517;BME280;34310;51.904;4.256;2023-11-19T06:14:22;100878.25;;;14.43;71.35
48517;BME280;34310;51.904;4.256;2023-11-19T06:16:48;100887.03;;;14.45;71.58
48517;BME280;34310;51.904;4.256;2023-11-19T06:19:15;100877.56;;;14.46;71.35
48517;BME280;34310;51.904;4.256;2023-11-19T06:21:41;100882.75;;;14.46;71.38
48517;BME280;34310;51.904;4.256;2023-11-19T06:24:08;100881.84;;;14.45;71.19
48517;BME280;34310;51.904;4.256;2023-11-19T06:26:34;100875.75;;;14.45;71.07
48517;BME280;34310;51.904;4.256;2023-11-19T06:29:01;100877.56;;;14.46;71.18
48517;BME280;34310;51.904;4.256;2023-11-19T06:31:27;100889.81;;;14.48;71.33
48517;BME280;34310;51.904;4.256;2023-11-19T06:33:54;100884.53;;;14.47;71.13
48517;BME280;34310;51.904;4.256;2023-11-19T06:36:20;100889.81;;;14.48;71.01
48517;BME280;34310;51.904;4.256;2023-11-19T06:38:47;100899.25;;;14.46;71.24
48517;BME280;34310;51.904;4.256;2023-11-19T06:41:13;100899.31;;;14.48;71.10
48517;BME280;34310;51.904;4.256;2023-11-19T06:43:40;100909.63;;;14.46;71.30
48517;BME280;34310;51.904;4.256;2023-11-19T06:46:15;100916.63;;;14.47;71.32
48517;BME280;34310;51.904;4.256;2023-11-19T06:48:41;100924.41;;;14.47;71.08
48517;BME280;34310;51.904;4.256;2023-11-19T06:51:08;100923.41;;;14.45;71.31
48517;BME280;34310;51.904;4.256;2023-11-19T06:53:34;100923.41;;;14.45;71.07
48517;BME280;34310;51.904;4.256;2023-11-19T06:56:01;100923.41;;;14.45;71.21
48517;BME280;34310;51.904;4.256;2023-11-19T06:58:28;100922.50;;;14.45;71.12
48517;BME280;34310;51.904;4.256;2023-11-19T07:00:54;100920.72;;;14.44;71.07
48517;BME280;34310;51.904;4.256;2023-11-19T07:03:21;100918.00;;;14.42;71.17
48517;BME280;34310;51.904;4.256;2023-11-19T07:05:48;100911.13;;;14.43;71.16
48517;BME280;34310;51.904;4.256;2023-11-19T07:08:14;100914.81;;;14.46;71.30
48517;BME280;34310;51.904;4.256;2023-11-19T07:10:41;100902.53;;;14.44;71.27
48517;BME280;34310;51.904;4.256;2023-11-19T07:13:07;100903.41;;;14.44;71.24
48517;BME280;34310;51.904;4.256;2023-11-19T07:15:34;100905.13;;;14.44;71.22
48517;BME280;34310;51.904;4.256;2023-11-19T07:18:00;100899.81;;;14.42;71.34
48517;BME280;34310;51.904;4.256;2023-11-19T07:20:28;100914.63;;;14.43;71.26
48517;BME280;34310;51.904;4.256;2023-11-19T07:22:54;100916.41;;;14.44;71.44
48517;BME280;34310;51.904;4.256;2023-11-19T07:25:23;100913.81;;;14.44;71.19
48517;BME280;34310;51.904;4.256;2023-11-19T07:27:51;100932.88;;;14.45;71.40
48517;BME280;34310;51.904;4.256;2023-11-19T07:30:17;100919.91;;;14.45;71.23
48517;BME280;34310;51.904;4.256;2023-11-19T07:32:44;100934.59;;;14.44;71.29
48517;BME280;34310;51.904;4.256;2023-11-19T07:35:10;100924.31;;;14.46;71.45
48517;BME280;34310;51.904;4.256;2023-11-19T07:37:37;100920.91;;;14.47;71.05
48517;BME280;34310;51.904;4.256;2023-11-19T07:40:04;100916.63;;;14.47;71.08
48517;BME280;34310;51.904;4.256;2023-11-19T07:42:30;100914.09;;;14.49;71.11
48517;BME280;34310;51.904;4.256;2023-11-19T07:44:57;100917.50;;;14.48;71.31
48517;BME280;34310;51.904;4.256;2023-11-19T07:47:23;100919.13;;;14.46;71.14
48517;BME280;34310;51.904;4.256;2023-11-19T07:49:50;100917.44;;;14.46;71.20
48517;BME280;34310;51.904;4.256;2023-11-19T07:52:17;100906.13;;;14.46;71.00
48517;BME280;34310;51.904;4.256;2023-11-19T07:54:46;100922.88;;;14.51;70.84
48517;BME280;34310;51.904;4.256;2023-11-19T07:57:13;100910.84;;;14.53;71.05
48517;BME280;34310;51.904;4.256;2023-11-19T07:59:39;100902.97;;;14.51;70.76
48517;BME280;34310;51.904;4.256;2023-11-19T08:02:06;100908.44;;;14.56;70.80
48517;BME280;34310;51.904;4.256;2023-11-19T08:04:32;100922.31;;;14.56;70.79
48517;BME280;34310;51.904;4.256;2023-11-19T08:06:59;100921.41;;;14.56;70.96
48517;BME280;34310;51.904;4.256;2023-11-19T08:09:25;100933.59;;;14.57;70.91
48517;BME280;34310;51.904;4.256;2023-11-19T08:11:52;100925.81;;;14.57;70.74
48517;BME280;34310;51.904;4.256;2023-11-19T08:14:18;100927.44;;;14.55;70.75
48517;BME280;34310;51.904;4.256;2023-11-19T08:16:45;100940.66;;;14.60;70.69
48517;BME280;34310;51.904;4.256;2023-11-19T08:19:11;100940.75;;;14.61;70.72
48517;BME280;34310;51.904;4.256;2023-11-19T08:21:38;100932.06;;;14.61;70.73
48517;BME280;34310;51.904;4.256;2023-11-19T08:24:04;100933.03;;;14.63;70.58
48517;BME280;34310;51.904;4.256;2023-11-19T08:26:31;100927.84;;;14.63;70.53
48517;BME280;34310;51.904;4.256;2023-11-19T08:28:57;100931.50;;;14.66;70.47
48517;BME280;34310;51.904;4.256;2023-11-19T08:31:24;100928.75;;;14.63;70.66
48517;BME280;34310;51.904;4.256;2023-11-19T08:33:51;100932.41;;;14.67;70.57
48517;BME280;34310;51.904;4.256;2023-11-19T08:36:18;100924.59;;;14.67;70.51
48517;BME280;34310;51.904;4.256;2023-11-19T08:38:45;100931.50;;;14.66;70.37
48517;BME280;34310;51.904;4.256;2023-11-19T08:41:12;100929.00;;;14.68;70.37
48517;BME280;34310;51.904;4.256;2023-11-19T08:43:38;100923.88;;;14.69;70.41
48517;BME280;34310;51.904;4.256;2023-11-19T08:46:09;100918.69;;;14.69;70.38
48517;BME280;34310;51.904;4.256;2023-11-19T08:48:36;100915.09;;;14.67;70.50
48517;BME280;34310;51.904;4.256;2023-11-19T08:51:03;100917.78;;;14.69;70.35
48517;BME280;34310;51.904;4.256;2023-11-19T08:53:29;100914.53;;;14.73;70.20
48517;BME280;34310;51.904;4.256;2023-11-19T08:55:56;100918.94;;;14.74;70.28
48517;BME280;34310;51.904;4.256;2023-11-19T08:58:23;100928.53;;;14.75;70.32
48517;BME280;34310;51.904;4.256;2023-11-19T09:00:49;100925.03;;;14.74;70.46
48517;BME280;34310;51.904;4.256;2023-11-19T09:03:16;100924.13;;;14.74;70.39
48517;BME280;34310;51.904;4.256;2023-11-19T09:05:42;100932.81;;;14.74;70.40
48517;BME280;34310;51.904;4.256;2023-11-19T09:08:09;100906.81;;;14.74;70.45
48517;BME280;34310;51.904;4.256;2023-11-19T09:10:35;100920.84;;;14.76;70.37
48517;BME280;34310;51.904;4.256;2023-11-19T09:13:02;100927.00;;;14.78;70.30
48517;BME280;34310;51.904;4.256;2023-11-19T09:15:28;100919.63;;;14.86;70.24
48517;BME280;34310;51.904;4.256;2023-11-19T09:17:55;100907.69;;;14.90;69.97
48517;BME280;34310;51.904;4.256;2023-11-19T09:20:21;100908.56;;;14.90;70.06
48517;BME280;34310;51.904;4.256;2023-11-19T09:22:48;100922.63;;;14.94;70.20
48517;BME280;34310;51.904;4.256;2023-11-19T09:25:14;100915.66;;;14.93;69.99
48517;BME280;34310;51.904;4.256;2023-11-19T09:27:41;100917.34;;;14.92;70.03
48517;BME280;34310;51.904;4.256;2023-11-19T09:30:08;100914.75;;;14.92;70.11
48517;BME280;34310;51.904;4.256;2023-11-19T09:32:34;100919.22;;;14.95;70.09
48517;BME280;34310;51.904;4.256;2023-11-19T09:35:01;100920.19;;;14.97;70.15
48517;BME280;34310;51.904;4.256;2023-11-19T09:37:28;100915.81;;;14.96;70.02
48517;BME280;34310;51.904;4.256;2023-11-19T09:39:54;100919.38;;;14.98;69.74
48517;BME280;34310;51.904;4.256;2023-11-19T09:42:21;100910.78;;;14.99;69.92
48517;BME280;34310;51.904;4.256;2023-11-19T09:44:49;100915.88;;;14.97;69.95
48517;BME280;34310;51.904;4.256;2023-11-19T09:47:16;100920.19;;;14.97;69.65
48517;BME280;34310;51.904;4.256;2023-11-19T09:49:43;100915.72;;;14.94;70.03
48517;BME280;34310;51.904;4.256;2023-11-19T09:52:10;100910.59;;;14.96;70.11
48517;BME280;34310;51.904;4.256;2023-11-19T09:54:36;100917.69;;;14.98;70.03
48517;BME280;34310;51.904;4.256;2023-11-19T09:57:04;100920.44;;;15.01;69.85
48517;BME280;34310;51.904;4.256;2023-11-19T09:59:31;100919.00;;;15.06;70.12
48517;BME280;34310;51.904;4.256;2023-11-19T10:01:57;100911.44;;;15.11;69.80
48517;BME280;34310;51.904;4.256;2023-11-19T10:04:29;100910.72;;;15.13;69.90
48517;BME280;34310;51.904;4.256;2023-11-19T10:06:56;100911.03;;;15.19;69.38
48517;BME280;34310;51.904;4.256;2023-11-19T10:09:23;100927.78;;;15.25;69.32
48517;BME280;34310;51.904;4.256;2023-11-19T10:11:49;100914.94;;;15.28;69.28
48517;BME280;34310;51.904;4.256;2023-11-19T10:14:16;100907.13;;;15.28;69.42
48517;BME280;34310;51.904;4.256;2023-11-19T10:16:43;100912.69;;;15.34;69.37
48517;BME280;34310;51.904;4.256;2023-11-19T10:19:18;100898.03;;;15.36;69.13
48517;BME280;34310;51.904;4.256;2023-11-19T10:21:45;100906.91;;;15.39;69.27
48517;BME280;34310;51.904;4.256;2023-11-19T10:24:12;100914.13;;;15.45;68.93
48517;BME280;34310;51.904;4.256;2023-11-19T10:26:56;100912.34;;;15.44;69.17
48517;BME280;34310;51.904;4.256;2023-11-19T10:29:23;100913.22;;;15.44;69.16
48517;BME280;34310;51.904;4.256;2023-11-19T10:31:56;100906.91;;;15.39;69.16
48517;BME280;34310;51.904;4.256;2023-11-19T10:34:43;100921.47;;;15.36;69.24
48517;BME280;34310;51.904;4.256;2023-11-19T10:37:27;100914.47;;;15.35;69.24
48517;BME280;34310;51.904;4.256;2023-11-19T10:39:54;100912.69;;;15.34;69.62
48517;BME280;34310;51.904;4.256;2023-11-19T10:42:21;100899.75;;;15.35;69.46
48517;BME280;34310;51.904;4.256;2023-11-19T10:44:48;100905.44;;;15.44;69.10
48517;BME280;34310;51.904;4.256;2023-11-19T10:47:14;100900.53;;;15.50;68.93
48517;BME280;34310;51.904;4.256;2023-11-19T10:49:41;100883.28;;;15.53;68.99
48517;BME280;34310;51.904;4.256;2023-11-19T10:52:08;100906.25;;;15.60;68.76
48517;BME280;34310;51.904;4.256;2023-11-19T10:54:35;100892.53;;;15.62;68.81
48517;BME280;34310;51.904;4.256;2023-11-19T10:57:04;100887.31;;;15.62;68.64
48517;BME280;34310;51.904;4.256;2023-11-19T10:59:33;100889.91;;;15.62;68.73
48517;BME280;34310;51.904;4.256;2023-11-19T11:02:03;100883.63;;;15.59;68.68
48517;BME280;34310;51.904;4.256;2023-11-19T11:04:31;100888.56;;;15.54;68.82
48517;BME280;34310;51.904;4.256;2023-11-19T11:07:00;100887.59;;;15.52;68.82
48517;BME280;34310;51.904;4.256;2023-11-19T11:09:27;100888.41;;;15.51;69.02
48517;BME280;34310;51.904;4.256;2023-11-19T11:11:54;100889.31;;;15.52;68.86
48517;BME280;34310;51.904;4.256;2023-11-19T11:14:22;100879.22;;;15.58;68.84
48517;BME280;34310;51.904;4.256;2023-11-19T11:16:49;100877.72;;;15.61;68.75
48517;BME280;34310;51.904;4.256;2023-11-19T11:19:17;100882.34;;;15.67;68.75
48517;BME280;34310;51.904;4.256;2023-11-19T11:21:48;100875.72;;;15.73;68.72
48517;BME280;34310;51.904;4.256;2023-11-19T11:24:23;100868.22;;;15.79;68.53
48517;BME280;34310;51.904;4.256;2023-11-19T11:29:41;100883.38;;;15.70;68.62
48517;BME280;34310;51.904;4.256;2023-11-19T11:38:06;100865.44;;;15.93;68.14
48517;BME280;34310;51.904;4.256;2023-11-19T11:40:34;100868.09;;;15.94;67.83
48517;BME280;34310;51.904;4.256;2023-11-19T11:43:01;100870.19;;;16.01;67.75
48517;BME280;34310;51.904;4.256;2023-11-19T11:45:40;100866.03;;;16.05;67.91
48517;BME280;34310;51.904;4.256;2023-11-19T11:50:51;100866.91;;;16.05;67.65
48517;BME280;34310;51.904;4.256;2023-11-19T11:53:20;100865.41;;;16.10;67.86
48517;BME280;34310;51.904;4.256;2023-11-19T11:58:27;100859.38;;;16.11;67.58
48517;BME280;34310;51.904;4.256;2023-11-19T12:00:57;100858.41;;;16.09;67.49
48517;BME280;34310;51.904;4.256;2023-11-19T12:03:27;100873.59;;;16.18;67.54
48517;BME280;34310;51.904;4.256;2023-11-19T12:05:54;100870.78;;;16.14;67.54
48517;BME280;34310;51.904;4.256;2023-11-19T12:08:26;100860.94;;;16.08;67.71
48517;BME280;34310;51.904;4.256;2023-11-19T12:10:57;100869.50;;;16.05;67.71
48517;BME280;34310;51.904;4.256;2023-11-19T12:13:25;100870.19;;;16.01;67.97
48517;BME280;34310;51.904;4.256;2023-11-19T12:18:27;100860.44;;;15.97;67.99
48517;BME280;34310;51.904;4.256;2023-11-19T12:20:54;100872.50;;;15.95;68.18
48517;BME280;34310;51.904;4.256;2023-11-19T12:23:22;100869.81;;;15.94;68.28
48517;BME280;34310;51.904;4.256;2023-11-19T12:25:48;100867.06;;;15.91;68.55
48517;BME280;34310;51.904;4.256;2023-11-19T12:28:16;100869.56;;;15.89;68.27
48517;BME280;34310;51.904;4.256;2023-11-19T12:30:43;100863.31;;;15.86;68.34
48517;BME280;34310;51.904;4.256;2023-11-19T12:33:11;100865.91;;;15.86;68.54
48517;BME280;34310;51.904;4.256;2023-11-19T12:35:42;100863.31;;;15.86;68.56
48517;BME280;34310;51.904;4.256;2023-11-19T12:38:21;100868.38;;;15.83;68.43
48517;BME280;34310;51.904;4.256;2023-11-19T12:41:07;100859.66;;;15.82;68.54
48517;BME280;34310;51.904;4.256;2023-11-19T12:43:34;100873.50;;;15.81;68.72
48517;BME280;34310;51.904;4.256;2023-11-19T12:46:23;100865.53;;;15.78;68.93
48517;BME280;34310;51.904;4.256;2023-11-19T12:48:51;100856.84;;;15.77;68.85
48517;BME280;34310;51.904;4.256;2023-11-19T12:51:18;100865.69;;;15.81;68.74
48517;BME280;34310;51.904;4.256;2023-11-19T12:53:49;100857.13;;;15.84;68.74
48517;BME280;34310;51.904;4.256;2023-11-19T12:56:16;100859.75;;;15.84;68.65
48517;BME280;34310;51.904;4.256;2023-11-19T12:58:42;100857.22;;;15.85;68.76
48517;BME280;34310;51.904;4.256;2023-11-19T13:01:09;100847.75;;;15.87;68.70
48517;BME280;34310;51.904;4.256;2023-11-19T13:03:36;100847.75;;;15.87;68.59
48517;BME280;34310;51.904;4.256;2023-11-19T13:06:08;100848.66;;;15.88;68.85
48517;BME280;34310;51.904;4.256;2023-11-19T13:11:06;100851.25;;;15.88;68.54